UACC/TSE METAR and TAF weather

Enter ICAO airport designator
Station Type Date Time Source
UACC METAR 2020/07/13 06:30 UTC NOAA

UACC 130630Z 05005MPS CAVOK 24/11 Q1016 R04/0///70 NOSIG RMK QFE731/0974


Station Type Date Time Source
UACC Decoded METAR 2020/07/13 06:30 UTC NOAA

Astana, Kazakhstan (UACC) 51-12N 071-27E
Jul 13, 2020 - 02:30 AM EDT / 2020.07.13 0630 UTC
Wind: from the NE (050 degrees) at 11 MPH (10 KT):0
Visibility: greater than 7 mile(s):0
Temperature: 75 F (24 C)
Dew Point: 51 F (11 C)
Relative Humidity: 43%
Pressure (altimeter): 30.00 in. Hg (1016 hPa)
ob: UACC 130630Z 05005MPS CAVOK 24/11 Q1016 R04/0///70 NOSIG RMK QFE731/0974
cycle: 6

Station Type Date Time Source
UACC TAF 2020/07/14 18:21 UTC NOAA

TAF UACC 141700Z 1418/1518 04003MPS CAVOK TX30/1510Z TN18/1423Z
FM150600 05010MPS 9999 BKN040 BKN100
BECMG 1512/1514 06005MPS

Example: see airport list